Batumi International Airport
UGSB : rendu visible

Aérodrome :











RETROUVEZ-NOUS SUR...

 
LOGIN :

S'inscrire | Disclaimer

   EN    FR    IT 

 









Légende :    VFR   VFR Marginal   IFR   IFR Intensif   IFR Très Intensif
Visi : 
Plafond : 
>= 8 km
>= 3000ft
5 à 8 km
1000 à 3000 ft
1500m à 5 km
500 à 1000 ft
800 à 1500m
200 à 500 ft
< 800m
< 200 ft
Symboles :   Orages  Brouillard  Fortes neiges  Fortes précipitations  Vent > 20 kt







- Altitude de l'aérodrome : 105 ft
- Code IATA : BUS


UGSB - Batumi International

DERNIER METAR :
  • 230130Z AUTO 25029KT 8000 -RA SCT025 OVC038 12/08 Q1016 R13/210250 NOSIG

METARs EXPIRÉS :
  • 230100Z 23026G36KT 7000 -SHRA BKN020CB 12/09 Q1016 R13/210250 NOSIG
  • 230030Z 24027KT 9000 -SHRA SCT010 BKN020CB 12/09 Q1016 R13/210250 NOSIG
  • 230000Z 24028KT 4300 SHRA SCT010 BKN016CB 11/10 Q1016 R13/210250 NOSIG
  • 222330Z 23028G38KT 6000 -SHRA SCT010 BKN018CB 12/10 Q1016 R13/210250 NOSIG
  • 222300Z 23028G39KT 6000 -SHRA SCT010 BKN021CB 11/10 Q1015 R13/29//55 NOSIG

TAF TAF UGSB
Valide du 23 à 00h jusqu'au 24 à 00h UTC


222300Z 2300/2324 23022KT 7000 -SHRA SCT013 BKN020CB TX11/2312Z TN07/2301Z
TEMPO 2300/2307 25035KT 3000 SHRA SCT006 OVC013CB
FIR UGGG / Asie



MET'MAP, la Météo Aéronautique d'un coup d'oeil ! - Copyright ORBIFLY Décembre 2007 - Disclaimer

ORBIFLY MET'MAP TEAM :

Programmation & Développement : Alexandra Zaïnal
Conception & Développement : Baudouin d'Aumeries
Co-Programmation & Développement : Marc-Olivier Méhu
Soutien technique & logistique : Manuel Goepfert

Contact : metmap@orbifly.com




SOURCES & CREDITS :

   NOAA       Earth
Advisory